sensor_id;sensor_type;location;lat;lon;timestamp;pressure;altitude;pressure_sealevel;temperature;humidity
5283;BME280;15376;48.540;9.268;2023-01-15T00:01:45;96368.34;;;11.10;100.00
5283;BME280;15376;48.540;9.268;2023-01-15T00:04:11;96383.06;;;11.38;99.44
5283;BME280;15376;48.540;9.268;2023-01-15T00:06:39;96376.03;;;11.50;98.44
5283;BME280;15376;48.540;9.268;2023-01-15T00:09:06;96383.75;;;11.58;97.08
5283;BME280;15376;48.540;9.268;2023-01-15T00:11:32;96362.09;;;11.54;97.15
5283;BME280;15376;48.540;9.268;2023-01-15T00:13:58;96367.47;;;11.73;95.54
5283;BME280;15376;48.540;9.268;2023-01-15T00:16:24;96366.44;;;11.74;95.47
5283;BME280;15376;48.540;9.268;2023-01-15T00:18:51;96365.41;;;11.75;95.63
5283;BME280;15376;48.540;9.268;2023-01-15T00:21:17;96356.00;;;11.79;95.03
5283;BME280;15376;48.540;9.268;2023-01-15T00:23:44;96351.03;;;11.82;94.94
5283;BME280;15376;48.540;9.268;2023-01-15T00:26:29;96336.56;;;11.78;94.81
5283;BME280;15376;48.540;9.268;2023-01-15T00:29:14;96344.13;;;11.75;95.16
5283;BME280;15376;48.540;9.268;2023-01-15T00:31:40;96343.16;;;11.69;96.21
5283;BME280;15376;48.540;9.268;2023-01-15T00:34:06;96343.31;;;11.74;95.73
5283;BME280;15376;48.540;9.268;2023-01-15T00:36:31;96332.44;;;11.82;95.22
5283;BME280;15376;48.540;9.268;2023-01-15T00:38:58;96322.94;;;11.93;93.79
5283;BME280;15376;48.540;9.268;2023-01-15T00:41:24;96314.63;;;11.83;94.68
5283;BME280;15376;48.540;9.268;2023-01-15T00:43:49;96318.03;;;11.90;94.34
5283;BME280;15376;48.540;9.268;2023-01-15T00:46:14;96323.31;;;11.96;93.16
5283;BME280;15376;48.540;9.268;2023-01-15T00:48:40;96326.09;;;11.83;91.83
5283;BME280;15376;48.540;9.268;2023-01-15T00:51:05;96317.06;;;11.59;92.26
5283;BME280;15376;48.540;9.268;2023-01-15T00:53:32;96319.88;;;11.64;92.39
5283;BME280;15376;48.540;9.268;2023-01-15T00:55:57;96315.88;;;11.55;93.70
5283;BME280;15376;48.540;9.268;2023-01-15T00:58:23;96307.22;;;11.60;94.17
5283;BME280;15376;48.540;9.268;2023-01-15T01:00:56;96304.66;;;11.72;93.63
5283;BME280;15376;48.540;9.268;2023-01-15T01:03:22;96307.16;;;11.66;95.73
5283;BME280;15376;48.540;9.268;2023-01-15T01:05:48;96303.47;;;11.67;97.71
5283;BME280;15376;48.540;9.268;2023-01-15T01:08:13;96302.25;;;11.45;100.00
5283;BME280;15376;48.540;9.268;2023-01-15T01:10:39;96300.47;;;11.14;100.00
5283;BME280;15376;48.540;9.268;2023-01-15T01:13:04;96282.59;;;10.96;100.00
5283;BME280;15376;48.540;9.268;2023-01-15T01:15:32;96284.16;;;10.79;100.00
5283;BME280;15376;48.540;9.268;2023-01-15T01:17:58;96274.56;;;10.78;100.00
5283;BME280;15376;48.540;9.268;2023-01-15T01:20:24;96272.66;;;10.85;100.00
5283;BME280;15376;48.540;9.268;2023-01-15T01:22:51;96274.03;;;10.94;100.00
5283;BME280;15376;48.540;9.268;2023-01-15T01:25:17;96258.56;;;10.85;100.00
5283;BME280;15376;48.540;9.268;2023-01-15T01:27:43;96276.31;;;10.84;100.00
5283;BME280;15376;48.540;9.268;2023-01-15T01:30:09;96267.16;;;10.80;100.00
5283;BME280;15376;48.540;9.268;2023-01-15T01:32:35;96265.63;;;10.97;100.00
5283;BME280;15376;48.540;9.268;2023-01-15T01:35:00;96260.75;;;10.94;100.00
5283;BME280;15376;48.540;9.268;2023-01-15T01:37:26;96242.03;;;10.83;100.00
5283;BME280;15376;48.540;9.268;2023-01-15T01:39:51;96227.31;;;10.80;100.00
5283;BME280;15376;48.540;9.268;2023-01-15T01:42:17;96245.69;;;10.82;100.00
5283;BME280;15376;48.540;9.268;2023-01-15T01:47:19;96248.84;;;10.72;100.00
5283;BME280;15376;48.540;9.268;2023-01-15T01:49:49;96251.81;;;10.82;100.00
5283;BME280;15376;48.540;9.268;2023-01-15T01:52:22;96241.94;;;10.96;100.00
5283;BME280;15376;48.540;9.268;2023-01-15T01:54:50;96232.00;;;10.85;100.00
5283;BME280;15376;48.540;9.268;2023-01-15T01:57:17;96233.41;;;10.87;100.00
5283;BME280;15376;48.540;9.268;2023-01-15T01:59:44;96236.56;;;11.02;100.00
5283;BME280;15376;48.540;9.268;2023-01-15T02:02:11;96217.22;;;10.95;100.00
5283;BME280;15376;48.540;9.268;2023-01-15T02:04:37;96234.84;;;11.15;100.00
5283;BME280;15376;48.540;9.268;2023-01-15T02:07:04;96215.81;;;11.18;100.00
5283;BME280;15376;48.540;9.268;2023-01-15T02:09:30;96216.66;;;11.36;100.00
5283;BME280;15376;48.540;9.268;2023-01-15T02:12:00;96216.44;;;11.38;100.00
5283;BME280;15376;48.540;9.268;2023-01-15T02:14:36;96180.69;;;11.34;100.00
5283;BME280;15376;48.540;9.268;2023-01-15T02:17:17;96211.00;;;11.51;100.00
5283;BME280;15376;48.540;9.268;2023-01-15T02:20:02;96163.28;;;11.38;100.00
5283;BME280;15376;48.540;9.268;2023-01-15T02:28:28;96197.84;;;11.75;100.00
5283;BME280;15376;48.540;9.268;2023-01-15T02:31:08;96189.25;;;11.79;100.00
5283;BME280;15376;48.540;9.268;2023-01-15T02:33:39;96195.59;;;11.78;100.00
5283;BME280;15376;48.540;9.268;2023-01-15T02:36:07;96186.00;;;11.77;100.00
5283;BME280;15376;48.540;9.268;2023-01-15T02:38:39;96181.41;;;11.84;100.00
5283;BME280;15376;48.540;9.268;2023-01-15T02:41:07;96185.31;;;11.82;100.00
5283;BME280;15376;48.540;9.268;2023-01-15T02:43:42;96183.47;;;11.82;100.00
5283;BME280;15376;48.540;9.268;2023-01-15T02:46:10;96171.34;;;11.68;100.00
5283;BME280;15376;48.540;9.268;2023-01-15T02:48:38;96167.97;;;11.79;100.00
5283;BME280;15376;48.540;9.268;2023-01-15T02:51:13;96179.13;;;11.88;100.00
5283;BME280;15376;48.540;9.268;2023-01-15T02:53:42;96178.69;;;11.91;100.00
5283;BME280;15376;48.540;9.268;2023-01-15T02:56:20;96177.34;;;11.82;100.00
5283;BME280;15376;48.540;9.268;2023-01-15T02:58:49;96180.53;;;11.90;100.00
5283;BME280;15376;48.540;9.268;2023-01-15T03:01:19;96181.78;;;11.88;100.00
5283;BME280;15376;48.540;9.268;2023-01-15T03:03:59;96164.66;;;11.84;100.00
5283;BME280;15376;48.540;9.268;2023-01-15T03:08:59;96142.09;;;11.86;100.00
5283;BME280;15376;48.540;9.268;2023-01-15T03:11:25;96144.69;;;11.93;100.00
5283;BME280;15376;48.540;9.268;2023-01-15T03:14:01;96129.75;;;11.92;100.00
5283;BME280;15376;48.540;9.268;2023-01-15T03:16:37;96137.88;;;11.97;100.00
5283;BME280;15376;48.540;9.268;2023-01-15T03:19:34;96129.31;;;11.95;100.00
5283;BME280;15376;48.540;9.268;2023-01-15T03:22:10;96133.81;;;11.94;100.00
5283;BME280;15376;48.540;9.268;2023-01-15T03:24:42;96132.41;;;11.92;100.00
5283;BME280;15376;48.540;9.268;2023-01-15T03:27:09;96106.56;;;11.81;100.00
5283;BME280;15376;48.540;9.268;2023-01-15T03:29:41;96135.09;;;11.92;100.00
5283;BME280;15376;48.540;9.268;2023-01-15T03:32:09;96125.69;;;11.89;100.00
5283;BME280;15376;48.540;9.268;2023-01-15T03:34:49;96137.88;;;11.97;100.00
5283;BME280;15376;48.540;9.268;2023-01-15T03:37:16;96142.84;;;11.93;100.00
5283;BME280;15376;48.540;9.268;2023-01-15T03:39:42;96131.84;;;11.90;100.00
5283;BME280;15376;48.540;9.268;2023-01-15T03:45:02;96142.09;;;11.86;100.00
5283;BME280;15376;48.540;9.268;2023-01-15T03:53:20;96168.34;;;11.83;100.00
5283;BME280;15376;48.540;9.268;2023-01-15T03:56:30;96158.13;;;11.80;100.00
5283;BME280;15376;48.540;9.268;2023-01-15T04:01:10;96139.56;;;11.36;100.00
5283;BME280;15376;48.540;9.268;2023-01-15T04:03:37;96148.38;;;11.19;100.00
5283;BME280;15376;48.540;9.268;2023-01-15T04:06:04;96152.38;;;11.03;100.00
5283;BME280;15376;48.540;9.268;2023-01-15T04:08:32;96143.81;;;11.01;100.00
5283;BME280;15376;48.540;9.268;2023-01-15T04:11:01;96137.69;;;11.00;100.00
5283;BME280;15376;48.540;9.268;2023-01-15T04:13:27;96143.31;;;11.11;100.00
5283;BME280;15376;48.540;9.268;2023-01-15T04:15:53;96153.13;;;11.10;100.00
5283;BME280;15376;48.540;9.268;2023-01-15T04:18:19;96141.38;;;10.99;100.00
5283;BME280;15376;48.540;9.268;2023-01-15T04:20:45;96140.34;;;11.00;100.00
5283;BME280;15376;48.540;9.268;2023-01-15T04:23:11;96120.13;;;10.99;100.00
5283;BME280;15376;48.540;9.268;2023-01-15T04:25:37;96120.94;;;11.00;100.00
5283;BME280;15376;48.540;9.268;2023-01-15T04:28:03;96097.69;;;10.95;100.00
5283;BME280;15376;48.540;9.268;2023-01-15T04:30:28;96099.63;;;11.07;100.00
5283;BME280;15376;48.540;9.268;2023-01-15T04:32:54;96109.97;;;11.15;100.00
5283;BME280;15376;48.540;9.268;2023-01-15T04:35:20;96102.44;;;11.12;100.00
5283;BME280;15376;48.540;9.268;2023-01-15T04:37:45;96103.47;;;11.11;100.00
5283;BME280;15376;48.540;9.268;2023-01-15T04:40:11;96110.09;;;11.20;100.00
5283;BME280;15376;48.540;9.268;2023-01-15T04:42:55;96089.75;;;11.14;100.00
5283;BME280;15376;48.540;9.268;2023-01-15T04:45:39;96119.72;;;11.39;100.00
5283;BME280;15376;48.540;9.268;2023-01-15T04:48:04;96119.59;;;11.52;100.00
5283;BME280;15376;48.540;9.268;2023-01-15T04:50:31;96105.09;;;11.48;100.00
5283;BME280;15376;48.540;9.268;2023-01-15T04:52:56;96108.13;;;11.52;100.00
5283;BME280;15376;48.540;9.268;2023-01-15T04:55:21;96110.03;;;11.63;100.00
5283;BME280;15376;48.540;9.268;2023-01-15T04:57:48;96104.72;;;11.63;100.00
5283;BME280;15376;48.540;9.268;2023-01-15T05:00:14;96104.84;;;11.68;100.00
5283;BME280;15376;48.540;9.268;2023-01-15T05:02:40;96108.78;;;11.65;100.00
5283;BME280;15376;48.540;9.268;2023-01-15T05:05:05;96099.28;;;11.58;100.00
5283;BME280;15376;48.540;9.268;2023-01-15T05:07:31;96090.94;;;11.54;100.00
5283;BME280;15376;48.540;9.268;2023-01-15T05:09:56;96090.72;;;11.56;100.00
5283;BME280;15376;48.540;9.268;2023-01-15T05:12:21;96087.47;;;11.54;100.00
5283;BME280;15376;48.540;9.268;2023-01-15T05:14:47;96088.63;;;11.58;100.00
5283;BME280;15376;48.540;9.268;2023-01-15T05:17:12;96078.00;;;11.58;100.00
5283;BME280;15376;48.540;9.268;2023-01-15T05:19:38;96103.31;;;11.60;100.00
5283;BME280;15376;48.540;9.268;2023-01-15T05:22:03;96087.25;;;11.55;100.00
5283;BME280;15376;48.540;9.268;2023-01-15T05:24:29;96104.81;;;11.56;100.00
5283;BME280;15376;48.540;9.268;2023-01-15T05:26:54;96104.59;;;11.58;100.00
5283;BME280;15376;48.540;9.268;2023-01-15T05:29:20;96098.31;;;11.52;100.00
5283;BME280;15376;48.540;9.268;2023-01-15T05:31:45;96111.47;;;11.47;100.00
5283;BME280;15376;48.540;9.268;2023-01-15T05:34:11;96088.19;;;11.43;100.00
5283;BME280;15376;48.540;9.268;2023-01-15T05:36:37;96098.03;;;11.42;100.00
5283;BME280;15376;48.540;9.268;2023-01-15T05:39:02;96099.19;;;11.46;100.00
5283;BME280;15376;48.540;9.268;2023-01-15T05:41:28;96111.09;;;11.44;100.00
5283;BME280;15376;48.540;9.268;2023-01-15T05:44:14;96115.59;;;11.43;100.00
5283;BME280;15376;48.540;9.268;2023-01-15T05:46:41;96099.78;;;11.30;100.00
5283;BME280;15376;48.540;9.268;2023-01-15T05:49:10;96107.09;;;11.34;100.00
5283;BME280;15376;48.540;9.268;2023-01-15T05:51:36;96118.69;;;11.40;100.00
5283;BME280;15376;48.540;9.268;2023-01-15T05:54:03;96114.84;;;11.36;100.00
5283;BME280;15376;48.540;9.268;2023-01-15T05:56:28;96114.53;;;11.26;100.00
5283;BME280;15376;48.540;9.268;2023-01-15T05:58:54;96118.06;;;11.20;100.00
5283;BME280;15376;48.540;9.268;2023-01-15T06:01:19;96123.47;;;11.13;100.00
5283;BME280;15376;48.540;9.268;2023-01-15T06:03:45;96125.38;;;11.06;100.00
5283;BME280;15376;48.540;9.268;2023-01-15T06:06:14;96121.53;;;11.02;100.00
5283;BME280;15376;48.540;9.268;2023-01-15T06:08:40;96103.22;;;10.76;100.00
5283;BME280;15376;48.540;9.268;2023-01-15T06:11:05;96139.00;;;10.91;100.00
5283;BME280;15376;48.540;9.268;2023-01-15T06:13:31;96137.16;;;10.92;100.00
5283;BME280;15376;48.540;9.268;2023-01-15T06:15:58;96119.53;;;10.79;100.00
5283;BME280;15376;48.540;9.268;2023-01-15T06:18:23;96123.94;;;10.85;100.00
5283;BME280;15376;48.540;9.268;2023-01-15T06:20:49;96147.84;;;10.85;100.00
5283;BME280;15376;48.540;9.268;2023-01-15T06:23:16;96145.00;;;10.80;100.00
5283;BME280;15376;48.540;9.268;2023-01-15T06:25:41;96153.88;;;10.74;100.00
5283;BME280;15376;48.540;9.268;2023-01-15T06:28:07;96184.16;;;10.66;100.00
5283;BME280;15376;48.540;9.268;2023-01-15T06:30:33;96179.25;;;9.94;100.00
5283;BME280;15376;48.540;9.268;2023-01-15T06:32:59;96197.63;;;8.91;100.00
5283;BME280;15376;48.540;9.268;2023-01-15T06:35:25;96191.28;;;8.53;100.00
5283;BME280;15376;48.540;9.268;2023-01-15T06:37:51;96240.44;;;8.27;100.00
5283;BME280;15376;48.540;9.268;2023-01-15T06:40:16;96224.47;;;7.94;100.00
5283;BME280;15376;48.540;9.268;2023-01-15T06:42:42;96219.13;;;7.81;100.00
5283;BME280;15376;48.540;9.268;2023-01-15T06:45:39;96277.81;;;7.70;100.00
5283;BME280;15376;48.540;9.268;2023-01-15T06:48:24;96246.25;;;7.55;100.00
5283;BME280;15376;48.540;9.268;2023-01-15T06:50:50;96263.59;;;7.36;100.00
5283;BME280;15376;48.540;9.268;2023-01-15T06:53:16;96276.94;;;7.28;100.00
5283;BME280;15376;48.540;9.268;2023-01-15T06:55:41;96273.91;;;7.31;100.00
5283;BME280;15376;48.540;9.268;2023-01-15T06:58:07;96300.25;;;7.25;100.00
5283;BME280;15376;48.540;9.268;2023-01-15T07:00:32;96293.94;;;7.19;100.00
5283;BME280;15376;48.540;9.268;2023-01-15T07:03:01;96307.91;;;7.13;100.00
5283;BME280;15376;48.540;9.268;2023-01-15T07:05:27;96303.38;;;7.07;100.00
5283;BME280;15376;48.540;9.268;2023-01-15T07:07:53;96319.03;;;7.09;100.00
5283;BME280;15376;48.540;9.268;2023-01-15T07:10:18;96324.81;;;6.97;100.00
5283;BME280;15376;48.540;9.268;2023-01-15T07:12:43;96339.00;;;6.96;100.00
5283;BME280;15376;48.540;9.268;2023-01-15T07:15:09;96337.38;;;6.95;100.00
5283;BME280;15376;48.540;9.268;2023-01-15T07:17:35;96327.75;;;6.88;100.00
5283;BME280;15376;48.540;9.268;2023-01-15T07:20:00;96336.88;;;7.07;100.00
5283;BME280;15376;48.540;9.268;2023-01-15T07:22:26;96367.28;;;7.02;100.00
5283;BME280;15376;48.540;9.268;2023-01-15T07:24:51;96363.31;;;6.92;100.00
5283;BME280;15376;48.540;9.268;2023-01-15T07:27:16;96363.75;;;6.74;100.00
5283;BME280;15376;48.540;9.268;2023-01-15T07:29:42;96394.72;;;6.87;100.00
5283;BME280;15376;48.540;9.268;2023-01-15T07:32:09;96395.53;;;6.87;100.00
5283;BME280;15376;48.540;9.268;2023-01-15T07:34:34;96368.25;;;6.59;100.00
5283;BME280;15376;48.540;9.268;2023-01-15T07:37:00;96389.44;;;6.65;100.00
5283;BME280;15376;48.540;9.268;2023-01-15T07:39:25;96423.25;;;6.62;100.00
5283;BME280;15376;48.540;9.268;2023-01-15T07:41:50;96433.25;;;6.66;100.00
5283;BME280;15376;48.540;9.268;2023-01-15T07:44:34;96399.53;;;6.47;100.00
5283;BME280;15376;48.540;9.268;2023-01-15T07:47:23;96447.91;;;6.69;100.00
5283;BME280;15376;48.540;9.268;2023-01-15T07:50:14;96446.84;;;6.34;100.00
5283;BME280;15376;48.540;9.268;2023-01-15T07:52:40;96455.91;;;6.46;100.00
5283;BME280;15376;48.540;9.268;2023-01-15T07:55:06;96454.56;;;6.35;100.00
5283;BME280;15376;48.540;9.268;2023-01-15T07:57:33;96460.22;;;6.32;100.00
5283;BME280;15376;48.540;9.268;2023-01-15T07:59:58;96481.91;;;6.49;100.00
5283;BME280;15376;48.540;9.268;2023-01-15T08:02:23;96476.84;;;6.48;100.00
5283;BME280;15376;48.540;9.268;2023-01-15T08:04:49;96477.00;;;6.46;100.00
5283;BME280;15376;48.540;9.268;2023-01-15T08:07:14;96493.13;;;6.37;100.00
5283;BME280;15376;48.540;9.268;2023-01-15T08:09:40;96495.47;;;6.31;100.00
5283;BME280;15376;48.540;9.268;2023-01-15T08:12:06;96472.34;;;6.04;100.00
5283;BME280;15376;48.540;9.268;2023-01-15T08:14:50;96497.56;;;6.21;100.00
5283;BME280;15376;48.540;9.268;2023-01-15T08:17:36;96499.66;;;6.26;100.00
5283;BME280;15376;48.540;9.268;2023-01-15T08:20:03;96507.53;;;6.11;100.00
5283;BME280;15376;48.540;9.268;2023-01-15T08:22:29;96496.81;;;5.98;100.00
5283;BME280;15376;48.540;9.268;2023-01-15T08:24:55;96514.63;;;6.11;100.00
5283;BME280;15376;48.540;9.268;2023-01-15T08:27:20;96523.69;;;6.08;100.00
5283;BME280;15376;48.540;9.268;2023-01-15T08:29:45;96519.41;;;6.07;100.00
5283;BME280;15376;48.540;9.268;2023-01-15T08:32:11;96533.94;;;6.03;100.00
5283;BME280;15376;48.540;9.268;2023-01-15T08:34:36;96519.53;;;5.99;100.00
5283;BME280;15376;48.540;9.268;2023-01-15T08:37:02;96535.22;;;6.07;100.00
5283;BME280;15376;48.540;9.268;2023-01-15T08:39:27;96540.25;;;6.17;100.00
5283;BME280;15376;48.540;9.268;2023-01-15T08:41:54;96527.03;;;6.02;100.00
5283;BME280;15376;48.540;9.268;2023-01-15T08:44:20;96552.34;;;6.11;100.00
5283;BME280;15376;48.540;9.268;2023-01-15T08:46:46;96551.69;;;6.09;100.00
5283;BME280;15376;48.540;9.268;2023-01-15T08:49:12;96563.47;;;6.21;100.00
5283;BME280;15376;48.540;9.268;2023-01-15T08:51:38;96562.28;;;6.24;100.00
5283;BME280;15376;48.540;9.268;2023-01-15T08:54:03;96564.38;;;6.28;100.00
5283;BME280;15376;48.540;9.268;2023-01-15T08:56:28;96576.56;;;6.29;100.00
5283;BME280;15376;48.540;9.268;2023-01-15T08:58:54;96582.63;;;6.15;100.00
5283;BME280;15376;48.540;9.268;2023-01-15T09:01:19;96586.72;;;6.18;100.00
5283;BME280;15376;48.540;9.268;2023-01-15T09:03:44;96584.03;;;6.03;100.00
5283;BME280;15376;48.540;9.268;2023-01-15T09:06:10;96599.13;;;6.09;100.00
5283;BME280;15376;48.540;9.268;2023-01-15T09:08:37;96593.00;;;5.94;100.00
5283;BME280;15376;48.540;9.268;2023-01-15T09:11:05;96603.19;;;5.97;100.00
5283;BME280;15376;48.540;9.268;2023-01-15T09:13:31;96596.13;;;5.97;100.00
5283;BME280;15376;48.540;9.268;2023-01-15T09:16:01;96585.94;;;5.86;100.00
5283;BME280;15376;48.540;9.268;2023-01-15T09:18:27;96566.00;;;5.61;100.00
5283;BME280;15376;48.540;9.268;2023-01-15T09:20:53;96605.25;;;5.79;100.00
5283;BME280;15376;48.540;9.268;2023-01-15T09:23:18;96608.88;;;5.78;100.00
5283;BME280;15376;48.540;9.268;2023-01-15T09:26:33;96617.09;;;5.83;100.00
5283;BME280;15376;48.540;9.268;2023-01-15T09:28:39;96626.19;;;5.72;100.00
5283;BME280;15376;48.540;9.268;2023-01-15T09:31:04;96635.13;;;5.63;100.00
5283;BME280;15376;48.540;9.268;2023-01-15T09:33:30;96629.22;;;5.61;100.00
5283;BME280;15376;48.540;9.268;2023-01-15T09:35:55;96627.41;;;5.30;100.00
5283;BME280;15376;48.540;9.268;2023-01-15T09:38:20;96642.34;;;5.38;100.00
5283;BME280;15376;48.540;9.268;2023-01-15T09:40:49;96636.75;;;5.41;100.00
5283;BME280;15376;48.540;9.268;2023-01-15T09:43:37;96644.63;;;5.41;100.00
5283;BME280;15376;48.540;9.268;2023-01-15T09:46:13;96630.66;;;5.41;100.00
5283;BME280;15376;48.540;9.268;2023-01-15T09:54:22;96610.84;;;5.53;100.00
5283;BME280;15376;48.540;9.268;2023-01-15T09:56:50;96635.91;;;5.72;100.00
5283;BME280;15376;48.540;9.268;2023-01-15T09:59:21;96641.13;;;5.80;100.00
5283;BME280;15376;48.540;9.268;2023-01-15T10:01:51;96647.53;;;5.85;100.00
5283;BME280;15376;48.540;9.268;2023-01-15T10:04:37;96615.53;;;5.65;100.00
5283;BME280;15376;48.540;9.268;2023-01-15T10:07:11;96638.94;;;5.60;100.00
5283;BME280;15376;48.540;9.268;2023-01-15T10:09:42;96644.25;;;5.52;100.00
5283;BME280;15376;48.540;9.268;2023-01-15T10:12:19;96650.59;;;5.35;100.00
5283;BME280;15376;48.540;9.268;2023-01-15T10:17:42;96643.00;;;5.40;100.00
5283;BME280;15376;48.540;9.268;2023-01-15T10:22:58;96680.81;;;5.47;100.00
5283;BME280;15376;48.540;9.268;2023-01-15T10:25:41;96674.94;;;5.37;100.00
5283;BME280;15376;48.540;9.268;2023-01-15T10:28:17;96681.47;;;5.49;100.00
5283;BME280;15376;48.540;9.268;2023-01-15T10:30:47;96688.03;;;5.53;100.00
5283;BME280;15376;48.540;9.268;2023-01-15T10:33:55;96678.88;;;5.33;100.00
5283;BME280;15376;48.540;9.268;2023-01-15T10:36:41;96675.13;;;5.27;100.00
5283;BME280;15376;48.540;9.268;2023-01-15T10:39:23;96694.34;;;5.36;100.00
5283;BME280;15376;48.540;9.268;2023-01-15T10:42:01;96687.78;;;5.32;100.00
5283;BME280;15376;48.540;9.268;2023-01-15T10:45:00;96686.47;;;5.28;100.00
5283;BME280;15376;48.540;9.268;2023-01-15T10:47:34;96682.41;;;5.17;100.00
5283;BME280;15376;48.540;9.268;2023-01-15T10:50:22;96692.78;;;5.19;100.00
5283;BME280;15376;48.540;9.268;2023-01-15T10:53:04;96680.22;;;5.21;100.00
5283;BME280;15376;48.540;9.268;2023-01-15T10:55:42;96683.91;;;5.12;100.00
5283;BME280;15376;48.540;9.268;2023-01-15T10:58:38;96688.63;;;5.24;100.00
5283;BME280;15376;48.540;9.268;2023-01-15T11:01:15;96688.78;;;5.23;100.00
5283;BME280;15376;48.540;9.268;2023-01-15T11:03:42;96704.56;;;5.23;100.00
5283;BME280;15376;48.540;9.268;2023-01-15T11:06:17;96700.94;;;5.24;100.00
5283;BME280;15376;48.540;9.268;2023-01-15T11:08:47;96693.13;;;5.08;100.00
5283;BME280;15376;48.540;9.268;2023-01-15T11:11:40;96699.34;;;5.15;100.00
5283;BME280;15376;48.540;9.268;2023-01-15T11:14:38;96707.25;;;5.15;100.00
5283;BME280;15376;48.540;9.268;2023-01-15T11:17:25;96701.69;;;5.01;100.00
5283;BME280;15376;48.540;9.268;2023-01-15T11:20:43;96719.28;;;5.01;100.00
5283;BME280;15376;48.540;9.268;2023-01-15T11:23:17;96707.94;;;4.92;100.00
5283;BME280;15376;48.540;9.268;2023-01-15T11:25:55;96725.38;;;4.93;100.00
5283;BME280;15376;48.540;9.268;2023-01-15T11:28:34;96726.03;;;4.95;100.00
5283;BME280;15376;48.540;9.268;2023-01-15T11:31:01;96717.47;;;4.85;100.00
5283;BME280;15376;48.540;9.268;2023-01-15T11:33:27;96746.72;;;4.98;100.00
5283;BME280;15376;48.540;9.268;2023-01-15T11:35:55;96750.03;;;5.00;100.00
5283;BME280;15376;48.540;9.268;2023-01-15T11:38:46;96741.47;;;5.07;100.00
5283;BME280;15376;48.540;9.268;2023-01-15T11:41:20;96710.59;;;4.68;100.00
5283;BME280;15376;48.540;9.268;2023-01-15T11:43:57;96768.44;;;5.00;100.00
5283;BME280;15376;48.540;9.268;2023-01-15T11:46:45;96763.00;;;4.94;100.00
5283;BME280;15376;48.540;9.268;2023-01-15T11:49:28;96763.00;;;4.86;100.00
5283;BME280;15376;48.540;9.268;2023-01-15T11:52:20;96776.16;;;4.86;100.00
5283;BME280;15376;48.540;9.268;2023-01-15T11:54:50;96767.13;;;4.80;100.00
5283;BME280;15376;48.540;9.268;2023-01-15T11:57:29;96779.63;;;4.78;100.00
5283;BME280;15376;48.540;9.268;2023-01-15T11:59:56;96795.59;;;4.77;100.00
5283;BME280;15376;48.540;9.268;2023-01-15T12:02:35;96771.22;;;4.34;100.00
5283;BME280;15376;48.540;9.268;2023-01-15T12:05:16;96817.06;;;4.56;100.00
5283;BME280;15376;48.540;9.268;2023-01-15T12:07:43;96827.59;;;4.56;100.00
5283;BME280;15376;48.540;9.268;2023-01-15T12:10:15;96818.69;;;4.32;100.00
5283;BME280;15376;48.540;9.268;2023-01-15T12:31:34;96840.19;;;3.86;100.00
5283;BME280;15376;48.540;9.268;2023-01-15T12:34:11;96848.09;;;3.94;100.00
5283;BME280;15376;48.540;9.268;2023-01-15T12:39:51;96863.66;;;3.87;100.00
5283;BME280;15376;48.540;9.268;2023-01-15T12:42:22;96857.22;;;3.82;100.00
5283;BME280;15376;48.540;9.268;2023-01-15T12:45:18;96853.97;;;3.88;100.00
5283;BME280;15376;48.540;9.268;2023-01-15T12:55:55;96835.94;;;3.93;100.00
5283;BME280;15376;48.540;9.268;2023-01-15T13:00:48;96839.25;;;3.95;100.00
5283;BME280;15376;48.540;9.268;2023-01-15T13:03:24;96850.75;;;4.02;100.00
5283;BME280;15376;48.540;9.268;2023-01-15T13:05:55;96834.00;;;3.95;100.00
5283;BME280;15376;48.540;9.268;2023-01-15T13:11:41;96853.41;;;4.10;100.00
5283;BME280;15376;48.540;9.268;2023-01-15T13:14:15;96835.81;;;4.02;100.00
5283;BME280;15376;48.540;9.268;2023-01-15T13:19:44;96847.84;;;4.13;100.00
5283;BME280;15376;48.540;9.268;2023-01-15T13:22:21;96845.53;;;4.10;100.00
5283;BME280;15376;48.540;9.268;2023-01-15T13:24:57;96854.75;;;4.14;100.00
5283;BME280;15376;48.540;9.268;2023-01-15T13:32:57;96868.09;;;4.29;100.00
5283;BME280;15376;48.540;9.268;2023-01-15T13:35:32;96880.47;;;4.37;100.00
5283;BME280;15376;48.540;9.268;2023-01-15T13:38:02;96872.56;;;4.37;100.00
5283;BME280;15376;48.540;9.268;2023-01-15T13:40:49;96880.63;;;4.35;100.00
5283;BME280;15376;48.540;9.268;2023-01-15T13:45:48;96866.66;;;4.34;100.00
5283;BME280;15376;48.540;9.268;2023-01-15T13:48:17;96886.06;;;4.50;100.00
5283;BME280;15376;48.540;9.268;2023-01-15T13:50:55;96875.56;;;4.50;100.00
5283;BME280;15376;48.540;9.268;2023-01-15T13:53:31;96877.53;;;4.56;100.00
5283;BME280;15376;48.540;9.268;2023-01-15T13:56:07;96858.28;;;4.47;100.00
5283;BME280;15376;48.540;9.268;2023-01-15T13:58:55;96884.13;;;4.60;100.00
5283;BME280;15376;48.540;9.268;2023-01-15T14:06:44;96894.81;;;4.58;100.00
5283;BME280;15376;48.540;9.268;2023-01-15T14:09:11;96877.88;;;4.53;100.00
5283;BME280;15376;48.540;9.268;2023-01-15T14:26:01;96878.22;;;4.58;100.00
5283;BME280;15376;48.540;9.268;2023-01-15T14:28:33;96884.97;;;4.60;100.00
5283;BME280;15376;48.540;9.268;2023-01-15T14:31:13;96879.19;;;4.57;100.00
5283;BME280;15376;48.540;9.268;2023-01-15T14:36:25;96881.94;;;4.47;100.00
5283;BME280;15376;48.540;9.268;2023-01-15T14:38:56;96875.38;;;4.43;100.00
5283;BME280;15376;48.540;9.268;2023-01-15T14:41:34;96881.75;;;4.41;100.00
5283;BME280;15376;48.540;9.268;2023-01-15T14:44:32;96901.50;;;4.37;100.00
5283;BME280;15376;48.540;9.268;2023-01-15T14:47:02;96889.31;;;4.35;100.00
5283;BME280;15376;48.540;9.268;2023-01-15T14:49:43;96886.03;;;4.33;100.00
5283;BME280;15376;48.540;9.268;2023-01-15T14:52:15;96898.19;;;4.34;100.00
5283;BME280;15376;48.540;9.268;2023-01-15T14:54:46;96890.44;;;4.25;100.00
5283;BME280;15376;48.540;9.268;2023-01-15T14:57:13;96902.47;;;4.35;100.00
5283;BME280;15376;48.540;9.268;2023-01-15T15:00:14;96906.06;;;4.34;100.00
5283;BME280;15376;48.540;9.268;2023-01-15T15:02:43;96903.41;;;4.26;100.00
5283;BME280;15376;48.540;9.268;2023-01-15T15:05:20;96899.19;;;4.33;100.00
5283;BME280;15376;48.540;9.268;2023-01-15T15:07:47;96900.47;;;4.29;100.00
5283;BME280;15376;48.540;9.268;2023-01-15T15:10:30;96892.75;;;4.28;100.00